sensor_id;sensor_type;location;lat;lon;timestamp;pressure;altitude;pressure_sealevel;temperature;humidity
77706;BME280;66874;45.274;5.880;2024-01-10T00:01:07;99554.88;;;0.63;85.22
77706;BME280;66874;45.274;5.880;2024-01-10T00:03:32;99555.75;;;0.64;85.04
77706;BME280;66874;45.274;5.880;2024-01-10T00:05:58;99562.63;;;0.65;85.31
77706;BME280;66874;45.274;5.880;2024-01-10T00:08:23;99549.75;;;0.65;85.32
77706;BME280;66874;45.274;5.880;2024-01-10T00:10:51;99557.53;;;0.66;85.18
77706;BME280;66874;45.274;5.880;2024-01-10T00:13:16;99555.88;;;0.68;85.10
77706;BME280;66874;45.274;5.880;2024-01-10T00:15:42;99539.53;;;0.66;85.25
77706;BME280;66874;45.274;5.880;2024-01-10T00:18:07;99541.13;;;0.63;85.12
77706;BME280;66874;45.274;5.880;2024-01-10T00:20:33;99549.63;;;0.60;85.12
77706;BME280;66874;45.274;5.880;2024-01-10T00:22:58;99539.34;;;0.60;85.36
77706;BME280;66874;45.274;5.880;2024-01-10T00:25:24;99535.91;;;0.60;85.31
77706;BME280;66874;45.274;5.880;2024-01-10T00:27:49;99547.88;;;0.58;85.38
77706;BME280;66874;45.274;5.880;2024-01-10T00:30:15;99542.72;;;0.58;85.22
77706;BME280;66874;45.274;5.880;2024-01-10T00:32:40;99542.63;;;0.55;84.98
77706;BME280;66874;45.274;5.880;2024-01-10T00:35:05;99542.66;;;0.56;85.25
77706;BME280;66874;45.274;5.880;2024-01-10T00:37:31;99548.75;;;0.58;85.25
77706;BME280;66874;45.274;5.880;2024-01-10T00:39:56;99545.34;;;0.61;85.22
77706;BME280;66874;45.274;5.880;2024-01-10T00:42:22;99547.13;;;0.62;85.19
77706;BME280;66874;45.274;5.880;2024-01-10T00:44:47;99549.69;;;0.62;85.17
77706;BME280;66874;45.274;5.880;2024-01-10T00:47:12;99553.94;;;0.61;85.11
77706;BME280;66874;45.274;5.880;2024-01-10T00:49:38;99546.28;;;0.63;84.94
77706;BME280;66874;45.274;5.880;2024-01-10T00:52:03;99548.00;;;0.62;85.21
77706;BME280;66874;45.274;5.880;2024-01-10T00:54:29;99550.59;;;0.64;85.19
77706;BME280;66874;45.274;5.880;2024-01-10T00:56:54;99552.31;;;0.63;85.29
77706;BME280;66874;45.274;5.880;2024-01-10T00:59:20;99545.44;;;0.64;85.25
77706;BME280;66874;45.274;5.880;2024-01-10T01:01:45;99543.75;;;0.64;85.27
77706;BME280;66874;45.274;5.880;2024-01-10T01:04:10;99549.75;;;0.65;85.49
77706;BME280;66874;45.274;5.880;2024-01-10T01:06:36;99544.69;;;0.66;85.28
77706;BME280;66874;45.274;5.880;2024-01-10T01:09:01;99546.41;;;0.67;85.35
77706;BME280;66874;45.274;5.880;2024-01-10T01:11:27;99543.81;;;0.66;85.33
77706;BME280;66874;45.274;5.880;2024-01-10T01:13:52;99541.22;;;0.66;85.27
77706;BME280;66874;45.274;5.880;2024-01-10T01:16:18;99546.41;;;0.67;85.39
77706;BME280;66874;45.274;5.880;2024-01-10T01:18:43;99537.03;;;0.69;85.21
77706;BME280;66874;45.274;5.880;2024-01-10T01:21:11;99537.06;;;0.71;85.14
77706;BME280;66874;45.274;5.880;2024-01-10T01:23:36;99542.22;;;0.71;85.10
77706;BME280;66874;45.274;5.880;2024-01-10T01:26:02;99539.66;;;0.71;85.09
77706;BME280;66874;45.274;5.880;2024-01-10T01:28:29;99540.53;;;0.73;85.10
77706;BME280;66874;45.274;5.880;2024-01-10T01:30:54;99531.84;;;0.68;85.01
77706;BME280;66874;45.274;5.880;2024-01-10T01:33:20;99533.44;;;0.64;85.41
77706;BME280;66874;45.274;5.880;2024-01-10T01:35:45;99536.75;;;0.59;85.32
77706;BME280;66874;45.274;5.880;2024-01-10T01:38:10;99533.22;;;0.57;85.05
77706;BME280;66874;45.274;5.880;2024-01-10T01:40:36;99534.94;;;0.56;85.08
77706;BME280;66874;45.274;5.880;2024-01-10T01:43:02;99539.25;;;0.57;85.13
77706;BME280;66874;45.274;5.880;2024-01-10T01:45:40;99536.75;;;0.59;85.15
77706;BME280;66874;45.274;5.880;2024-01-10T01:48:06;99534.94;;;0.56;85.05
77706;BME280;66874;45.274;5.880;2024-01-10T01:50:32;99530.56;;;0.54;85.07
77706;BME280;66874;45.274;5.880;2024-01-10T01:52:57;99536.66;;;0.56;85.34
77706;BME280;66874;45.274;5.880;2024-01-10T01:55:23;99527.22;;;0.56;85.18
77706;BME280;66874;45.274;5.880;2024-01-10T01:57:49;99530.53;;;0.52;84.99
77706;BME280;66874;45.274;5.880;2024-01-10T02:00:15;99533.06;;;0.51;84.98
77706;BME280;66874;45.274;5.880;2024-01-10T02:02:42;99536.53;;;0.51;85.05
77706;BME280;66874;45.274;5.880;2024-01-10T02:05:08;99533.13;;;0.54;85.29
77706;BME280;66874;45.274;5.880;2024-01-10T02:07:34;99527.97;;;0.52;84.99
77706;BME280;66874;45.274;5.880;2024-01-10T02:09:59;99539.97;;;0.52;85.04
77706;BME280;66874;45.274;5.880;2024-01-10T02:12:25;99539.94;;;0.50;84.99
77706;BME280;66874;45.274;5.880;2024-01-10T02:14:50;99540.81;;;0.52;85.09
77706;BME280;66874;45.274;5.880;2024-01-10T02:17:15;99533.09;;;0.52;84.93
77706;BME280;66874;45.274;5.880;2024-01-10T02:19:41;99532.16;;;0.48;85.13
77706;BME280;66874;45.274;5.880;2024-01-10T02:22:06;99535.59;;;0.49;85.19
77706;BME280;66874;45.274;5.880;2024-01-10T02:24:32;99538.16;;;0.49;85.03
77706;BME280;66874;45.274;5.880;2024-01-10T02:26:57;99544.19;;;0.49;85.00
77706;BME280;66874;45.274;5.880;2024-01-10T02:29:22;99540.72;;;0.49;85.05
77706;BME280;66874;45.274;5.880;2024-01-10T02:31:49;99545.97;;;0.52;85.20
77706;BME280;66874;45.274;5.880;2024-01-10T02:34:14;99546.00;;;0.54;84.77
77706;BME280;66874;45.274;5.880;2024-01-10T02:36:40;99546.00;;;0.54;84.99
77706;BME280;66874;45.274;5.880;2024-01-10T02:39:05;99543.44;;;0.54;85.08
77706;BME280;66874;45.274;5.880;2024-01-10T02:41:30;99544.34;;;0.54;84.89
77706;BME280;66874;45.274;5.880;2024-01-10T02:43:56;99544.38;;;0.56;85.29
77706;BME280;66874;45.274;5.880;2024-01-10T02:46:24;99550.34;;;0.55;85.11
77706;BME280;66874;45.274;5.880;2024-01-10T02:48:53;99549.50;;;0.56;85.00
77706;BME280;66874;45.274;5.880;2024-01-10T02:51:18;99545.28;;;0.58;85.21
77706;BME280;66874;45.274;5.880;2024-01-10T02:53:44;99549.50;;;0.56;85.04
77706;BME280;66874;45.274;5.880;2024-01-10T02:56:09;99533.94;;;0.51;84.92
77706;BME280;66874;45.274;5.880;2024-01-10T02:58:34;99541.66;;;0.51;84.91
77706;BME280;66874;45.274;5.880;2024-01-10T03:01:00;99544.25;;;0.51;84.95
77706;BME280;66874;45.274;5.880;2024-01-10T03:03:26;99540.72;;;0.49;85.13
77706;BME280;66874;45.274;5.880;2024-01-10T03:05:51;99536.44;;;0.49;85.10
77706;BME280;66874;45.274;5.880;2024-01-10T03:08:17;99538.22;;;0.51;85.10
77706;BME280;66874;45.274;5.880;2024-01-10T03:10:42;99539.88;;;0.48;84.92
77706;BME280;66874;45.274;5.880;2024-01-10T03:13:08;99536.44;;;0.48;84.93
77706;BME280;66874;45.274;5.880;2024-01-10T03:15:33;99535.56;;;0.47;85.00
77706;BME280;66874;45.274;5.880;2024-01-10T03:17:58;99535.56;;;0.47;84.96
77706;BME280;66874;45.274;5.880;2024-01-10T03:20:24;99533.84;;;0.48;85.12
77706;BME280;66874;45.274;5.880;2024-01-10T03:22:49;99532.03;;;0.44;85.01
77706;BME280;66874;45.274;5.880;2024-01-10T03:25:14;99532.84;;;0.43;85.10
77706;BME280;66874;45.274;5.880;2024-01-10T03:27:40;99536.31;;;0.43;85.17
77706;BME280;66874;45.274;5.880;2024-01-10T03:30:06;99538.81;;;0.42;85.23
77706;BME280;66874;45.274;5.880;2024-01-10T03:32:31;99533.66;;;0.42;85.26
77706;BME280;66874;45.274;5.880;2024-01-10T03:34:57;99533.75;;;0.45;85.20
77706;BME280;66874;45.274;5.880;2024-01-10T03:37:22;99526.84;;;0.42;85.16
77706;BME280;66874;45.274;5.880;2024-01-10T03:39:48;99531.09;;;0.42;85.15
77706;BME280;66874;45.274;5.880;2024-01-10T03:42:13;99523.38;;;0.42;85.42
77706;BME280;66874;45.274;5.880;2024-01-10T03:44:40;99521.63;;;0.41;85.22
77706;BME280;66874;45.274;5.880;2024-01-10T03:47:06;99526.69;;;0.38;85.28
77706;BME280;66874;45.274;5.880;2024-01-10T03:49:31;99528.38;;;0.37;85.23
77706;BME280;66874;45.274;5.880;2024-01-10T03:51:57;99537.84;;;0.38;85.25
77706;BME280;66874;45.274;5.880;2024-01-10T03:54:22;99541.25;;;0.37;85.20
77706;BME280;66874;45.274;5.880;2024-01-10T03:56:47;99533.53;;;0.37;85.34
77706;BME280;66874;45.274;5.880;2024-01-10T03:59:13;99526.63;;;0.35;85.15
77706;BME280;66874;45.274;5.880;2024-01-10T04:01:38;99517.19;;;0.35;85.13
77706;BME280;66874;45.274;5.880;2024-01-10T04:04:04;99513.75;;;0.35;85.14
77706;BME280;66874;45.274;5.880;2024-01-10T04:06:30;99516.31;;;0.35;85.24
77706;BME280;66874;45.274;5.880;2024-01-10T04:08:55;99513.78;;;0.36;85.16
77706;BME280;66874;45.274;5.880;2024-01-10T04:11:20;99509.50;;;0.37;85.24
77706;BME280;66874;45.274;5.880;2024-01-10T04:13:46;99507.03;;;0.40;85.30
77706;BME280;66874;45.274;5.880;2024-01-10T04:16:11;99507.94;;;0.42;85.09
77706;BME280;66874;45.274;5.880;2024-01-10T04:18:37;99498.53;;;0.42;85.30
77706;BME280;66874;45.274;5.880;2024-01-10T04:21:03;99506.16;;;0.39;85.04
77706;BME280;66874;45.274;5.880;2024-01-10T04:23:28;99511.31;;;0.39;85.20
77706;BME280;66874;45.274;5.880;2024-01-10T04:25:55;99505.28;;;0.39;85.42
77706;BME280;66874;45.274;5.880;2024-01-10T04:28:21;99507.06;;;0.41;85.35
77706;BME280;66874;45.274;5.880;2024-01-10T04:30:46;99503.63;;;0.41;85.21
77706;BME280;66874;45.274;5.880;2024-01-10T04:33:11;99502.75;;;0.40;85.38
77706;BME280;66874;45.274;5.880;2024-01-10T04:35:37;99502.66;;;0.37;85.47
77706;BME280;66874;45.274;5.880;2024-01-10T04:38:03;99512.13;;;0.38;85.30
77706;BME280;66874;45.274;5.880;2024-01-10T04:40:28;99506.94;;;0.37;85.48
77706;BME280;66874;45.274;5.880;2024-01-10T04:42:53;99506.09;;;0.38;85.43
77706;BME280;66874;45.274;5.880;2024-01-10T04:45:19;99501.81;;;0.38;85.29
77706;BME280;66874;45.274;5.880;2024-01-10T04:47:44;99498.44;;;0.39;85.25
77706;BME280;66874;45.274;5.880;2024-01-10T04:50:10;99508.72;;;0.39;85.34
77706;BME280;66874;45.274;5.880;2024-01-10T04:52:35;99514.69;;;0.38;85.31
77706;BME280;66874;45.274;5.880;2024-01-10T04:55:01;99504.34;;;0.37;85.36
77706;BME280;66874;45.274;5.880;2024-01-10T04:57:28;99507.72;;;0.34;85.46
77706;BME280;66874;45.274;5.880;2024-01-10T04:59:53;99501.69;;;0.34;85.37
77706;BME280;66874;45.274;5.880;2024-01-10T05:02:19;99501.69;;;0.34;85.38
77706;BME280;66874;45.274;5.880;2024-01-10T05:04:45;99507.72;;;0.34;85.37
77706;BME280;66874;45.274;5.880;2024-01-10T05:07:10;99512.06;;;0.35;85.38
77706;BME280;66874;45.274;5.880;2024-01-10T05:09:36;99514.56;;;0.34;85.39
77706;BME280;66874;45.274;5.880;2024-01-10T05:12:02;99511.22;;;0.36;85.30
77706;BME280;66874;45.274;5.880;2024-01-10T05:14:27;99517.25;;;0.38;85.42
77706;BME280;66874;45.274;5.880;2024-01-10T05:16:53;99515.59;;;0.39;85.42
77706;BME280;66874;45.274;5.880;2024-01-10T05:19:19;99519.91;;;0.40;85.49
77706;BME280;66874;45.274;5.880;2024-01-10T05:21:44;99522.56;;;0.43;85.48
77706;BME280;66874;45.274;5.880;2024-01-10T05:24:10;99518.28;;;0.43;85.32
77706;BME280;66874;45.274;5.880;2024-01-10T05:26:35;99516.53;;;0.42;85.42
77706;BME280;66874;45.274;5.880;2024-01-10T05:29:01;99516.56;;;0.44;85.44
77706;BME280;66874;45.274;5.880;2024-01-10T05:31:26;99517.44;;;0.44;85.43
77706;BME280;66874;45.274;5.880;2024-01-10T05:33:51;99517.47;;;0.46;85.41
77706;BME280;66874;45.274;5.880;2024-01-10T05:36:21;99516.59;;;0.45;85.37
77706;BME280;66874;45.274;5.880;2024-01-10T05:38:47;99516.56;;;0.44;85.46
77706;BME280;66874;45.274;5.880;2024-01-10T05:41:13;99513.13;;;0.43;85.37
77706;BME280;66874;45.274;5.880;2024-01-10T05:43:39;99508.81;;;0.42;85.33
77706;BME280;66874;45.274;5.880;2024-01-10T05:46:05;99511.34;;;0.41;85.19
77706;BME280;66874;45.274;5.880;2024-01-10T05:48:30;99507.88;;;0.39;85.46
77706;BME280;66874;45.274;5.880;2024-01-10T05:50:55;99513.00;;;0.39;85.39
77706;BME280;66874;45.274;5.880;2024-01-10T05:53:23;99513.00;;;0.39;85.33
77706;BME280;66874;45.274;5.880;2024-01-10T05:55:48;99506.16;;;0.39;85.30
77706;BME280;66874;45.274;5.880;2024-01-10T05:58:14;99508.75;;;0.41;85.38
77706;BME280;66874;45.274;5.880;2024-01-10T06:00:39;99525.13;;;0.43;85.23
77706;BME280;66874;45.274;5.880;2024-01-10T06:03:04;99520.03;;;0.44;85.53
77706;BME280;66874;45.274;5.880;2024-01-10T06:05:30;99520.88;;;0.45;85.57
77706;BME280;66874;45.274;5.880;2024-01-10T06:07:57;99518.31;;;0.45;85.45
77706;BME280;66874;45.274;5.880;2024-01-10T06:10:22;99521.81;;;0.47;85.56
77706;BME280;66874;45.274;5.880;2024-01-10T06:12:47;99524.44;;;0.48;85.49
77706;BME280;66874;45.274;5.880;2024-01-10T06:15:14;99527.84;;;0.47;85.32
77706;BME280;66874;45.274;5.880;2024-01-10T06:17:39;99539.88;;;0.48;85.32
77706;BME280;66874;45.274;5.880;2024-01-10T06:20:06;99530.34;;;0.46;85.24
77706;BME280;66874;45.274;5.880;2024-01-10T06:22:32;99534.69;;;0.47;85.34
77706;BME280;66874;45.274;5.880;2024-01-10T06:24:58;99541.56;;;0.48;85.46
77706;BME280;66874;45.274;5.880;2024-01-10T06:27:23;99537.56;;;0.58;85.53
77706;BME280;66874;45.274;5.880;2024-01-10T06:29:49;99546.50;;;0.70;85.21
77706;BME280;66874;45.274;5.880;2024-01-10T06:32:14;99540.72;;;0.79;85.19
77706;BME280;66874;45.274;5.880;2024-01-10T06:34:40;99539.97;;;0.83;85.16
77706;BME280;66874;45.274;5.880;2024-01-10T06:37:06;99546.19;;;0.90;84.72
77706;BME280;66874;45.274;5.880;2024-01-10T06:39:34;99548.84;;;0.93;84.78
77706;BME280;66874;45.274;5.880;2024-01-10T06:42:00;99551.34;;;0.91;84.78
77706;BME280;66874;45.274;5.880;2024-01-10T06:44:25;99546.19;;;0.90;84.56
77706;BME280;66874;45.274;5.880;2024-01-10T06:46:53;99550.34;;;0.85;84.70
77706;BME280;66874;45.274;5.880;2024-01-10T06:49:18;99545.88;;;0.79;84.75
77706;BME280;66874;45.274;5.880;2024-01-10T06:51:43;99548.34;;;0.76;84.76
77706;BME280;66874;45.274;5.880;2024-01-10T06:54:09;99542.44;;;0.79;84.90
77706;BME280;66874;45.274;5.880;2024-01-10T06:56:34;99548.47;;;0.81;84.83
77706;BME280;66874;45.274;5.880;2024-01-10T06:59:00;99558.88;;;0.84;84.83
77706;BME280;66874;45.274;5.880;2024-01-10T07:01:27;99558.06;;;0.85;84.91
77706;BME280;66874;45.274;5.880;2024-01-10T07:03:53;99562.38;;;0.86;84.93
77706;BME280;66874;45.274;5.880;2024-01-10T07:06:22;99558.94;;;0.85;84.99
77706;BME280;66874;45.274;5.880;2024-01-10T07:08:48;99564.88;;;0.83;85.03
77706;BME280;66874;45.274;5.880;2024-01-10T07:11:18;99564.09;;;0.85;84.88
77706;BME280;66874;45.274;5.880;2024-01-10T07:13:45;99567.47;;;0.84;84.74
77706;BME280;66874;45.274;5.880;2024-01-10T07:16:10;99563.13;;;0.82;85.07
77706;BME280;66874;45.274;5.880;2024-01-10T07:18:36;99570.88;;;0.83;85.00
77706;BME280;66874;45.274;5.880;2024-01-10T07:21:01;99572.69;;;0.86;85.05
77706;BME280;66874;45.274;5.880;2024-01-10T07:23:27;99575.34;;;0.89;84.93
77706;BME280;66874;45.274;5.880;2024-01-10T07:25:52;99583.00;;;0.87;85.04
77706;BME280;66874;45.274;5.880;2024-01-10T07:28:19;99576.09;;;0.85;84.89
77706;BME280;66874;45.274;5.880;2024-01-10T07:30:45;99574.38;;;0.85;84.86
77706;BME280;66874;45.274;5.880;2024-01-10T07:33:11;99588.16;;;0.87;85.11
77706;BME280;66874;45.274;5.880;2024-01-10T07:35:36;99592.53;;;0.90;84.82
77706;BME280;66874;45.274;5.880;2024-01-10T07:38:03;99595.94;;;0.89;85.03
77706;BME280;66874;45.274;5.880;2024-01-10T07:40:29;99597.69;;;0.90;84.96
77706;BME280;66874;45.274;5.880;2024-01-10T07:42:54;99590.75;;;0.87;84.91
77706;BME280;66874;45.274;5.880;2024-01-10T07:45:20;99604.44;;;0.85;84.97
77706;BME280;66874;45.274;5.880;2024-01-10T07:47:46;99606.09;;;0.84;84.79
77706;BME280;66874;45.274;5.880;2024-01-10T07:50:12;99603.59;;;0.86;84.77
77706;BME280;66874;45.274;5.880;2024-01-10T07:52:40;99607.03;;;0.86;84.85
77706;BME280;66874;45.274;5.880;2024-01-10T07:55:06;99612.16;;;0.85;84.96
77706;BME280;66874;45.274;5.880;2024-01-10T07:57:33;99604.34;;;0.82;84.87
77706;BME280;66874;45.274;5.880;2024-01-10T07:59:59;99602.63;;;0.82;84.67
77706;BME280;66874;45.274;5.880;2024-01-10T08:02:24;99606.06;;;0.83;84.64
77706;BME280;66874;45.274;5.880;2024-01-10T08:04:50;99602.72;;;0.85;84.85
77706;BME280;66874;45.274;5.880;2024-01-10T08:07:16;99610.47;;;0.87;84.65
77706;BME280;66874;45.274;5.880;2024-01-10T08:09:42;99607.03;;;0.86;84.58
77706;BME280;66874;45.274;5.880;2024-01-10T08:12:07;99606.25;;;0.89;84.61
77706;BME280;66874;45.274;5.880;2024-01-10T08:14:33;99609.78;;;0.92;84.61
77706;BME280;66874;45.274;5.880;2024-01-10T08:16:58;99610.66;;;0.93;84.62
77706;BME280;66874;45.274;5.880;2024-01-10T08:19:26;99615.84;;;0.94;84.63
77706;BME280;66874;45.274;5.880;2024-01-10T08:21:52;99615.09;;;0.98;84.40
77706;BME280;66874;45.274;5.880;2024-01-10T08:24:19;99616.91;;;1.01;84.39
77706;BME280;66874;45.274;5.880;2024-01-10T08:26:44;99616.09;;;1.04;84.55
77706;BME280;66874;45.274;5.880;2024-01-10T08:29:09;99611.84;;;1.04;84.39
77706;BME280;66874;45.274;5.880;2024-01-10T08:31:35;99615.31;;;1.06;84.35
77706;BME280;66874;45.274;5.880;2024-01-10T08:34:00;99614.53;;;1.09;84.38
77706;BME280;66874;45.274;5.880;2024-01-10T08:36:26;99621.50;;;1.13;84.40
77706;BME280;66874;45.274;5.880;2024-01-10T08:38:52;99626.75;;;1.16;84.41
77706;BME280;66874;45.274;5.880;2024-01-10T08:41:18;99628.53;;;1.18;84.17
77706;BME280;66874;45.274;5.880;2024-01-10T08:43:45;99622.63;;;1.22;84.12
77706;BME280;66874;45.274;5.880;2024-01-10T08:46:11;99631.31;;;1.26;84.07
77706;BME280;66874;45.274;5.880;2024-01-10T08:48:36;99623.66;;;1.29;84.06
77706;BME280;66874;45.274;5.880;2024-01-10T08:51:02;99614.22;;;1.30;83.95
77706;BME280;66874;45.274;5.880;2024-01-10T08:53:27;99616.84;;;1.31;83.90
77706;BME280;66874;45.274;5.880;2024-01-10T08:55:53;99601.53;;;1.37;83.91
77706;BME280;66874;45.274;5.880;2024-01-10T08:58:18;99599.16;;;1.45;83.81
77706;BME280;66874;45.274;5.880;2024-01-10T09:00:44;99589.91;;;1.53;83.59
77706;BME280;66874;45.274;5.880;2024-01-10T09:03:09;99598.09;;;1.70;83.66
77706;BME280;66874;45.274;5.880;2024-01-10T09:05:35;99590.53;;;1.78;83.36
77706;BME280;66874;45.274;5.880;2024-01-10T09:08:00;99590.56;;;1.79;83.08
77706;BME280;66874;45.274;5.880;2024-01-10T09:10:25;99597.66;;;1.88;82.96
77706;BME280;66874;45.274;5.880;2024-01-10T09:12:53;99601.25;;;1.94;82.99
77706;BME280;66874;45.274;5.880;2024-01-10T09:15:19;99599.72;;;2.03;82.97
77706;BME280;66874;45.274;5.880;2024-01-10T09:17:44;99610.31;;;2.13;82.75
77706;BME280;66874;45.274;5.880;2024-01-10T09:20:11;99610.56;;;2.26;82.67
77706;BME280;66874;45.274;5.880;2024-01-10T09:22:40;99609.78;;;2.28;82.39
77706;BME280;66874;45.274;5.880;2024-01-10T09:25:05;99605.50;;;2.29;82.28
77706;BME280;66874;45.274;5.880;2024-01-10T09:27:32;99606.50;;;2.35;82.38
77706;BME280;66874;45.274;5.880;2024-01-10T09:30:02;99616.19;;;2.45;82.20
77706;BME280;66874;45.274;5.880;2024-01-10T09:32:28;99610.38;;;2.54;82.26
77706;BME280;66874;45.274;5.880;2024-01-10T09:34:54;99622.53;;;2.60;82.15
77706;BME280;66874;45.274;5.880;2024-01-10T09:37:20;99620.03;;;2.64;82.14
77706;BME280;66874;45.274;5.880;2024-01-10T09:39:45;99616.75;;;2.72;81.78
77706;BME280;66874;45.274;5.880;2024-01-10T09:42:11;99619.50;;;2.79;81.63
77706;BME280;66874;45.274;5.880;2024-01-10T09:44:36;99624.81;;;2.85;81.61
77706;BME280;66874;45.274;5.880;2024-01-10T09:47:02;99622.31;;;2.90;81.34
77706;BME280;66874;45.274;5.880;2024-01-10T09:49:27;99611.22;;;2.96;81.23
77706;BME280;66874;45.274;5.880;2024-01-10T09:51:58;99617.38;;;3.01;81.23
77706;BME280;66874;45.274;5.880;2024-01-10T09:54:29;99620.00;;;3.04;81.20
77706;BME280;66874;45.274;5.880;2024-01-10T09:56:55;99607.13;;;3.07;81.00
77706;BME280;66874;45.274;5.880;2024-01-10T09:59:21;99608.00;;;3.07;80.95
77706;BME280;66874;45.274;5.880;2024-01-10T10:01:46;99607.97;;;3.06;80.83
77706;BME280;66874;45.274;5.880;2024-01-10T10:04:12;99602.81;;;3.06;80.75
77706;BME280;66874;45.274;5.880;2024-01-10T10:06:38;99606.16;;;3.00;80.87
77706;BME280;66874;45.274;5.880;2024-01-10T10:09:03;99612.97;;;2.97;80.98
77706;BME280;66874;45.274;5.880;2024-01-10T10:11:29;99615.59;;;3.00;80.80
77706;BME280;66874;45.274;5.880;2024-01-10T10:13:55;99606.31;;;3.08;80.56
77706;BME280;66874;45.274;5.880;2024-01-10T10:16:24;99612.44;;;3.13;80.64
77706;BME280;66874;45.274;5.880;2024-01-10T10:18:53;99604.75;;;3.17;80.51
77706;BME280;66874;45.274;5.880;2024-01-10T10:21:24;99611.72;;;3.22;80.44
77706;BME280;66874;45.274;5.880;2024-01-10T10:23:59;99606.78;;;3.34;80.30
77706;BME280;66874;45.274;5.880;2024-01-10T10:26:26;99596.63;;;3.43;80.08
77706;BME280;66874;45.274;5.880;2024-01-10T10:28:52;99601.88;;;3.48;80.05
77706;BME280;66874;45.274;5.880;2024-01-10T10:31:19;99601.94;;;3.51;79.97
77706;BME280;66874;45.274;5.880;2024-01-10T10:33:45;99606.38;;;3.59;80.08
77706;BME280;66874;45.274;5.880;2024-01-10T10:36:13;99595.25;;;3.63;79.80
77706;BME280;66874;45.274;5.880;2024-01-10T10:38:39;99593.50;;;3.62;79.80
77706;BME280;66874;45.274;5.880;2024-01-10T10:41:05;99597.84;;;3.65;79.88
77706;BME280;66874;45.274;5.880;2024-01-10T10:43:40;99600.50;;;3.68;79.98
77706;BME280;66874;45.274;5.880;2024-01-10T10:46:10;99601.47;;;3.75;80.00
77706;BME280;66874;45.274;5.880;2024-01-10T10:48:40;99594.75;;;3.84;79.86
77706;BME280;66874;45.274;5.880;2024-01-10T10:51:10;99601.78;;;3.93;79.86
77706;BME280;66874;45.274;5.880;2024-01-10T10:53:37;99598.34;;;3.96;79.68
77706;BME280;66874;45.274;5.880;2024-01-10T10:56:04;99594.13;;;4.01;79.73
77706;BME280;66874;45.274;5.880;2024-01-10T10:58:33;99597.53;;;4.00;79.41
77706;BME280;66874;45.274;5.880;2024-01-10T11:00:59;99589.84;;;4.03;79.37
77706;BME280;66874;45.274;5.880;2024-01-10T11:03:25;99603.75;;;4.08;79.04
77706;BME280;66874;45.274;5.880;2024-01-10T11:05:53;99596.06;;;4.14;79.36
77706;BME280;66874;45.274;5.880;2024-01-10T11:08:19;99601.22;;;4.14;79.20
77706;BME280;66874;45.274;5.880;2024-01-10T11:10:46;99594.44;;;4.19;79.10
77706;BME280;66874;45.274;5.880;2024-01-10T11:18:37;99586.66;;;4.22;78.68
77706;BME280;66874;45.274;5.880;2024-01-10T11:24:17;99585.88;;;4.26;78.64
77706;BME280;66874;45.274;5.880;2024-01-10T11:26:45;99574.63;;;4.24;78.47
77706;BME280;66874;45.274;5.880;2024-01-10T11:29:10;99574.56;;;4.20;78.51
77706;BME280;66874;45.274;5.880;2024-01-10T11:31:38;99572.81;;;4.17;78.64
77706;BME280;66874;45.274;5.880;2024-01-10T11:34:04;99571.88;;;4.13;78.79
77706;BME280;66874;45.274;5.880;2024-01-10T11:36:29;99560.72;;;4.18;78.87
77706;BME280;66874;45.274;5.880;2024-01-10T11:38:58;99556.47;;;4.21;78.94
77706;BME280;66874;45.274;5.880;2024-01-10T11:41:34;99559.81;;;4.14;78.87
77706;BME280;66874;45.274;5.880;2024-01-10T11:46:47;99543.34;;;4.09;78.99
77706;BME280;66874;45.274;5.880;2024-01-10T11:49:16;99551.06;;;4.07;78.95
77706;BME280;66874;45.274;5.880;2024-01-10T11:51:43;99542.47;;;4.10;79.04
77706;BME280;66874;45.274;5.880;2024-01-10T11:54:09;99542.47;;;4.10;78.92
77706;BME280;66874;45.274;5.880;2024-01-10T11:56:39;99534.66;;;4.04;78.75
77706;BME280;66874;45.274;5.880;2024-01-10T11:59:10;99532.88;;;4.01;78.89
77706;BME280;66874;45.274;5.880;2024-01-10T12:01:37;99524.34;;;4.10;78.78
77706;BME280;66874;45.274;5.880;2024-01-10T12:04:03;99522.69;;;4.12;78.66
77706;BME280;66874;45.274;5.880;2024-01-10T12:06:30;99523.59;;;4.15;78.88
77706;BME280;66874;45.274;5.880;2024-01-10T12:08:56;99513.28;;;4.20;78.70
77706;BME280;66874;45.274;5.880;2024-01-10T12:11:23;99512.44;;;4.23;78.72
77706;BME280;66874;45.274;5.880;2024-01-10T12:13:48;99509.84;;;4.20;78.52
77706;BME280;66874;45.274;5.880;2024-01-10T12:16:14;99502.91;;;4.19;78.64
77706;BME280;66874;45.274;5.880;2024-01-10T12:18:43;99504.66;;;4.21;78.73
77706;BME280;66874;45.274;5.880;2024-01-10T12:21:09;99503.81;;;4.22;78.61
77706;BME280;66874;45.274;5.880;2024-01-10T12:23:36;99506.38;;;4.21;78.69
77706;BME280;66874;45.274;5.880;2024-01-10T12:26:02;99503.78;;;4.19;78.73
77706;BME280;66874;45.274;5.880;2024-01-10T12:28:30;99502.03;;;4.16;78.86
77706;BME280;66874;45.274;5.880;2024-01-10T12:30:55;99502.84;;;4.12;78.74
77706;BME280;66874;45.274;5.880;2024-01-10T12:33:24;99500.19;;;4.08;78.87
77706;BME280;66874;45.274;5.880;2024-01-10T12:36:12;99502.72;;;4.05;78.99
77706;BME280;66874;45.274;5.880;2024-01-10T12:38:40;99503.59;;;4.07;78.71
77706;BME280;66874;45.274;5.880;2024-01-10T12:41:06;99502.78;;;4.08;78.78
77706;BME280;66874;45.274;5.880;2024-01-10T12:43:34;99496.69;;;4.07;78.80
77706;BME280;66874;45.274;5.880;2024-01-10T12:46:12;99501.81;;;4.03;78.95
77706;BME280;66874;45.274;5.880;2024-01-10T12:48:39;99500.09;;;4.02;79.06
77706;BME280;66874;45.274;5.880;2024-01-10T12:51:08;99497.56;;;4.05;79.04
77706;BME280;66874;45.274;5.880;2024-01-10T12:53:36;99498.41;;;4.05;78.91
77706;BME280;66874;45.274;5.880;2024-01-10T12:56:02;99496.75;;;4.09;79.06
77706;BME280;66874;45.274;5.880;2024-01-10T12:58:28;99491.56;;;4.09;79.01
77706;BME280;66874;45.274;5.880;2024-01-10T13:00:54;99489.94;;;4.15;79.13
77706;BME280;66874;45.274;5.880;2024-01-10T13:03:20;99489.13;;;4.21;78.77
77706;BME280;66874;45.274;5.880;2024-01-10T13:05:46;99491.72;;;4.20;78.79
77706;BME280;66874;45.274;5.880;2024-01-10T13:08:11;99487.44;;;4.23;78.88
77706;BME280;66874;45.274;5.880;2024-01-10T13:10:38;99491.72;;;4.23;78.54
77706;BME280;66874;45.274;5.880;2024-01-10T13:13:03;99494.34;;;4.24;78.95
77706;BME280;66874;45.274;5.880;2024-01-10T13:15:29;99489.22;;;4.29;78.66